Disclaimer

Please do not use the information listed here in-flight or in-navigation, as they are not provided to us by the airports but are provided by volunteers, so they might be outdated.

Search


Regions


Airport information page

Radio informations:
Tower (TWR) - 124.9 MHz
INFO - 124.125 MHz
Approach (APP) - 119.125 MHz

Airport informations:
Latitude: 53° 34' 28.00" N
Longitude: 000° 21' 03.00" W
Elevation: 121 feet - 37 meters
Operating hours: Remarks
Operating agency: Civil government, landing fees and diplomatic clearance may be required
Timezone: UTC 0(+1DT) - Last Sunday in March to last Sunday in October
Fuel: Jet A1+, Jet A1 with icing inhibitor.

100/130 MIL Spec, low lead, aviation gasoline (BLUE)

Runway information:
03/21 - 7205 x 148 feet< - >2196 x 45 meters
09/27 - 3458 x 98 feet< - >1054 x 30 meters

Recent METARs:
EGNJ 160650Z 17005KT 0200 R20/0700 FG OVC001 10/10 Q1025
EGNJ 160720Z 19004KT 140V250 0300 R20/1200 FG OVC001 10/10 Q1025
EGNJ 160750Z 18004KT 1700 R20/1200 BR SCT002 BKN005 10/10 Q1025

Airport on the map: